Pagina principale
METAR-TAF:

METAR-TAF

Aeroporti :

Luni

Sarzana, Italia

latitudine: 44-05N, longitudine: 009-59E, altezza: 9 m

Osservazione

Il bollettino è stato emesso 40 minuti fa, alle 06:55 UTC
Vento 1 kt da ovest/nord-ovest
Temperature 23°C
Umidità 83%
Pressione 1014 hPa
Visibilità 10 km o più
Poco nuvoloso ad un'altezza di 3000 ft

METAR: LIQW 190655Z 30001KT 9999 FEW030 23/20 Q1014 RMK FEW VIS MIN 9999 WIND THR18 29001KT BLU

Ora: 09:35 (07:35 UTC)

Previsione

Il bollettino è stato emesso 14 ore e 35 minuti fa, alle 17:00 UTC
Previsione valida dal 18 alle 18 UTC al 19 alle 03 UTC
Vento 3 kt da direzioni variabili
Visibilità 10 km o più
nessuna nube inferiore a 1500 m e nessun cumulonembo

TAF: LIQW 181700Z 1818/1903 VRB03KT CAVOK

Osservazioni e previsioni meteorologiche di più di 4000 aeroporti (messaggi METAR e TAF).

Le stazioni disponibili sono rappresentate dai dischi gialli e rossi sulla carta.

Puntare il mouse per vedere il nome della stazione.

Clicca sopra per visualizzare le osservazioni e previsioni meteorologiche.

Per cambiare la mappa : fare clic sui pulsanti verdi con una croce nera per ingrandire, il pulsante verde con un trattino per diminuire, o sulla freccia verde per le mappe adiacenti.


METAR-TAF: